Time;durP1;ratioP1;P1;durP2;ratioP2;P2;SDS_P1;SDS_P2;PMS_P1;PMS_P2;Temp;Humidity;BMP_temperature;BMP_pressure;BME280_temperature;BME280_humidity;BME280_pressure;Samples;Min_cycle;Max_cycle;Signal;HPM_P1;HPM_P2
2021/04/29 00:01:57;;;;;;;17.40;11.70;;;7.30;99.90;;;7.01;94.60;100417.66;4105096;29;20074;-69
2021/04/29 00:03:58;;;;;;;14.38;11.98;;;7.20;99.90;;;7.03;94.10;100413.09;4090654;29;20042;-69
2021/04/29 00:05:59;;;;;;;13.18;11.50;;;7.20;99.90;;;6.88;94.66;100411.03;4090474;29;20032;-69
2021/04/29 00:07:59;;;;;;;14.13;11.88;;;7.20;99.90;;;6.79;95.42;100415.31;4090670;29;20039;-69
2021/04/29 00:10:01;;;;;;;14.90;12.32;;;7.20;99.90;;;6.75;95.37;100411.31;4090737;29;20070;-69
2021/04/29 00:12:04;;;;;;;19.98;13.75;;;7.10;99.90;;;6.71;95.95;100424.84;4090474;29;20030;-69
2021/04/29 00:14:10;;;;;;;19.45;13.50;;;7.10;99.90;;;6.57;96.00;100416.44;4090430;29;20519;-69
2021/04/29 00:16:11;;;;;;;15.55;12.90;;;7.00;99.90;;;6.57;97.05;100415.63;4090592;29;20508;-69
2021/04/29 00:18:12;;;;;;;17.77;13.07;;;6.90;99.90;;;6.60;96.94;100417.97;4088954;29;20023;-69
2021/04/29 00:20:17;;;;;;;16.25;13.98;;;6.90;99.90;;;6.61;96.86;100423.06;4090314;29;20040;-69
2021/04/29 00:22:18;;;;;;;14.68;12.77;;;7.00;99.90;;;6.65;96.23;100424.47;4090448;29;20495;-69
2021/04/29 00:24:19;;;;;;;16.08;12.75;;;6.90;99.90;;;6.72;95.65;100411.59;4090544;29;20035;-69
2021/04/29 00:26:20;;;;;;;20.35;13.68;;;6.90;99.90;;;6.75;95.56;100415.75;4104941;29;20510;-69
2021/04/29 00:28:22;;;;;;;15.23;12.88;;;6.90;99.90;;;6.61;95.70;100409.97;4077933;29;20032;-69
2021/04/29 00:30:23;;;;;;;17.48;13.77;;;6.90;99.90;;;6.64;95.97;100420.16;4074586;29;20040;-69
2021/04/29 00:32:24;;;;;;;16.67;13.73;;;6.90;99.90;;;6.61;96.61;100417.00;4074285;29;20031;-69
2021/04/29 00:34:25;;;;;;;14.18;12.50;;;6.90;99.90;;;6.45;96.34;100414.91;4074538;29;20477;-69
2021/04/29 00:36:28;;;;;;;18.17;13.18;;;6.90;99.90;;;6.45;97.22;100419.34;4074513;29;20024;-69
2021/04/29 00:38:29;;;;;;;16.98;13.13;;;6.80;99.90;;;6.59;96.83;100421.56;4074663;29;20032;-69
2021/04/29 00:40:30;;;;;;;17.27;12.82;;;6.90;99.90;;;6.58;96.75;100409.41;4073194;29;20566;-69
2021/04/29 00:42:36;;;;;;;17.17;12.90;;;6.80;99.90;;;6.52;97.10;100408.16;4074375;29;20040;-69
2021/04/29 00:44:37;;;;;;;15.77;13.13;;;6.80;99.90;;;6.52;96.87;100412.56;4088608;29;20055;-69
2021/04/29 00:46:38;;;;;;;17.02;14.40;;;6.80;99.90;;;6.66;96.60;100407.75;4074221;29;20122;-69
2021/04/29 00:48:45;;;;;;;17.38;13.73;;;6.90;99.90;;;6.74;94.95;100412.31;4074498;29;20574;-69
2021/04/29 00:50:46;;;;;;;17.20;13.45;;;6.90;99.90;;;6.80;94.71;100410.91;4084001;29;20031;-69
2021/04/29 00:52:47;;;;;;;14.68;13.02;;;6.90;99.90;;;6.87;94.54;100410.19;4077166;29;20412;-69
2021/04/29 00:54:48;;;;;;;15.45;13.18;;;7.00;99.90;;;6.81;94.49;100407.34;4090064;29;20031;-69
2021/04/29 00:56:48;;;;;;;16.75;11.25;;;7.00;99.90;;;6.60;94.74;100408.28;4089939;29;20028;-69
2021/04/29 00:58:52;;;;;;;15.48;11.95;;;6.90;99.90;;;6.52;95.76;100402.94;4089870;29;20400;-69
2021/04/29 01:00:53;;;;;;;15.95;13.45;;;6.80;99.90;;;6.54;95.58;100406.22;4104461;29;20043;-68
2021/04/29 01:03:17;;;;;;;16.80;13.00;;;6.80;99.90;;;6.50;95.51;100402.25;4089632;29;20111;-69
2021/04/29 01:05:27;;;;;;;15.35;12.65;;;6.80;99.90;;;6.63;94.58;100405.41;4104176;29;20031;-69
2021/04/29 01:07:35;;;;;;;17.30;14.02;;;6.80;99.90;;;6.62;94.69;100403.75;4104024;29;20094;-69
2021/04/29 01:09:41;;;;;;;15.77;12.05;;;6.80;99.90;;;6.68;94.58;100410.25;4104085;29;20039;-69
2021/04/29 01:11:48;;;;;;;14.23;12.45;;;6.90;99.90;;;6.68;94.38;100403.22;4088460;29;20032;-69
2021/04/29 01:13:53;;;;;;;15.20;11.35;;;6.80;99.90;;;6.73;94.48;100404.56;4103813;29;20522;-70
2021/04/29 01:15:55;;;;;;;14.98;12.30;;;6.90;99.90;;;6.78;93.51;100413.66;4089661;29;20032;-69
2021/04/29 01:17:57;;;;;;;15.98;12.80;;;6.90;99.90;;;6.77;92.74;100412.03;4103961;29;20031;-69
2021/04/29 01:20:13;;;;;;;16.92;13.07;;;6.80;99.90;;;6.52;93.01;100423.06;4104176;29;20102;-69
2021/04/29 01:22:15;;;;;;;14.25;12.75;;;6.80;99.90;;;6.48;93.29;100417.25;4089679;29;20031;-69
2021/04/29 01:24:23;;;;;;;15.73;12.68;;;6.80;99.90;;;6.32;93.91;100418.78;4089666;29;20035;-69
2021/04/29 01:26:30;;;;;;;15.45;12.40;;;6.70;99.90;;;6.21;94.82;100414.50;4103884;29;20027;-68
2021/04/29 01:28:31;;;;;;;16.08;12.63;;;6.60;99.90;;;6.19;94.76;100416.41;4075632;29;20032;-69
2021/04/29 01:30:33;;;;;;;18.52;14.50;;;6.60;99.90;;;6.33;94.67;100421.25;4088278;29;20035;-69
2021/04/29 01:32:35;;;;;;;18.20;13.57;;;6.60;99.90;;;6.44;94.60;100421.16;4087968;29;20030;-69
2021/04/29 01:34:39;;;;;;;17.02;13.20;;;6.60;99.90;;;6.24;94.69;100390.66;4088185;29;20046;-69
2021/04/29 01:36:41;;;;;;;15.60;13.50;;;6.60;99.90;;;6.34;94.64;100424.69;4073537;29;20028;-69
2021/04/29 01:38:42;;;;;;;16.52;14.18;;;6.60;99.90;;;6.24;94.85;100422.09;4073643;29;20067;-69
2021/04/29 01:40:45;;;;;;;14.48;12.38;;;6.50;99.90;;;6.16;95.00;100421.09;4073542;29;20056;-69
2021/04/29 01:42:46;;;;;;;16.60;14.35;;;6.50;99.90;;;6.01;95.91;100412.81;4073341;29;20111;-69
2021/04/29 01:44:47;;;;;;;18.10;14.10;;;6.50;99.90;;;6.11;95.74;100414.50;4087823;29;20058;-69
2021/04/29 01:46:49;;;;;;;16.02;14.20;;;6.50;99.90;;;6.15;95.61;100420.28;4072173;29;20039;-69
2021/04/29 01:48:51;;;;;;;18.88;14.55;;;6.40;99.90;;;6.22;95.21;100425.78;4088205;29;20032;-69
2021/04/29 01:50:53;;;;;;;16.42;13.85;;;6.40;99.90;;;6.13;95.16;100416.97;4083955;29;20027;-69
2021/04/29 01:52:54;;;;;;;18.10;14.77;;;6.40;99.90;;;6.13;95.09;100432.66;4087683;29;20039;-69
2021/04/29 01:54:55;;;;;;;16.05;13.27;;;6.40;99.90;;;6.09;95.38;100419.00;4088156;29;20036;-69
2021/04/29 01:56:56;;;;;;;16.35;13.63;;;6.40;99.90;;;6.13;95.09;100411.72;4088037;29;20023;-69
2021/04/29 01:58:58;;;;;;;17.92;14.88;;;6.40;99.90;;;6.17;95.01;100420.97;4087865;29;20035;-69
2021/04/29 02:01:00;;;;;;;16.42;14.30;;;6.40;99.90;;;6.18;94.14;100414.78;4087752;29;20037;-69
2021/04/29 02:03:01;;;;;;;17.08;13.20;;;6.40;99.90;;;6.13;94.81;100419.56;4103445;29;20027;-69
2021/04/29 02:05:04;;;;;;;16.50;14.32;;;6.40;99.90;;;6.07;95.39;100422.72;4089129;29;20038;-69
2021/04/29 02:07:04;;;;;;;18.40;14.02;;;6.30;99.90;;;6.12;95.38;100425.81;4088948;29;20035;-69
2021/04/29 02:09:08;;;;;;;19.65;16.35;;;6.30;99.90;;;6.20;96.06;100423.31;4088700;29;20031;-69
2021/04/29 02:11:10;;;;;;;19.10;14.95;;;6.40;99.90;;;6.15;96.19;100414.22;4103477;29;20031;-69
2021/04/29 02:13:13;;;;;;;16.60;14.50;;;6.40;99.90;;;6.19;95.70;100432.13;4103827;29;20517;-69
2021/04/29 02:15:15;;;;;;;17.52;15.43;;;6.40;99.90;;;5.99;95.73;100428.66;4103445;29;20027;-69
2021/04/29 02:17:48;;;;;;;18.88;14.40;;;6.30;99.90;;;5.98;95.15;100427.00;4102983;29;20058;-69
2021/04/29 02:19:51;;;;;;;19.70;15.50;;;6.40;99.90;;;5.84;95.87;100426.50;4088800;29;20071;-69
2021/04/29 02:21:53;;;;;;;18.60;14.70;;;6.30;99.90;;;5.80;96.17;100432.97;4103370;29;20030;-69
2021/04/29 02:23:54;;;;;;;18.55;13.93;;;6.10;99.90;;;5.62;96.65;100429.31;4088524;29;20039;-69
2021/04/29 02:26:00;;;;;;;17.77;14.50;;;6.10;99.90;;;5.56;97.01;100436.75;4088603;29;20106;-69
2021/04/29 02:28:02;;;;;;;17.52;14.43;;;6.10;99.90;;;5.59;97.43;100441.72;4078857;29;20034;-69
2021/04/29 02:30:12;;;;;;;20.85;15.50;;;6.00;99.90;;;5.48;96.88;100417.44;4087209;29;20028;-69
2021/04/29 02:32:18;;;;;;;19.25;14.75;;;6.00;99.90;;;5.61;97.33;100440.75;4072522;29;20038;-70
2021/04/29 02:34:20;;;;;;;18.63;15.68;;;6.00;99.90;;;5.42;97.55;100426.63;4087332;29;20038;-69
2021/04/29 02:36:21;;;;;;;21.10;16.30;;;6.00;99.90;;;5.51;98.06;100432.88;4087330;29;20031;-69
2021/04/29 02:38:23;;;;;;;22.42;17.05;;;6.00;99.90;;;5.54;97.51;100430.81;4072635;29;20084;-69
2021/04/29 02:40:27;;;;;;;20.50;17.13;;;6.00;99.90;;;5.66;96.93;100434.16;4087308;29;20028;-69
2021/04/29 02:42:28;;;;;;;17.77;15.32;;;5.90;99.90;;;5.78;96.25;100445.38;4071525;29;20083;-69
2021/04/29 02:44:30;;;;;;;20.58;16.20;;;6.00;99.90;;;5.64;95.50;100430.88;4072368;29;20052;-69
2021/04/29 02:46:32;;;;;;;24.50;17.30;;;6.00;99.90;;;5.58;95.86;100429.59;4086686;29;20114;-69
2021/04/29 02:48:33;;;;;;;19.75;16.05;;;5.90;99.90;;;5.61;96.40;100433.75;4087180;29;20558;-69
2021/04/29 02:50:34;;;;;;;21.83;17.40;;;6.00;99.90;;;5.69;95.97;100443.53;4080837;29;20028;-69
2021/04/29 02:52:37;;;;;;;23.33;17.67;;;6.00;99.90;;;5.65;96.66;100442.13;4086998;29;20035;-69
2021/04/29 02:54:38;;;;;;;21.63;17.08;;;5.90;99.90;;;5.61;96.72;100433.75;4088190;29;20488;-69
2021/04/29 02:56:42;;;;;;;21.60;17.73;;;5.90;99.90;;;5.68;96.23;100434.84;4102998;29;20058;-69
2021/04/29 02:58:50;;;;;;;19.17;16.23;;;5.90;99.90;;;5.73;96.43;100439.72;4088416;29;20020;-69
2021/04/29 03:00:53;;;;;;;19.33;17.00;;;6.00;99.90;;;5.88;94.53;100441.03;4088322;29;20024;-69
2021/04/29 03:02:54;;;;;;;22.40;18.42;;;6.00;99.90;;;5.97;93.40;100443.66;4088045;29;20023;-69
2021/04/29 03:04:56;;;;;;;21.60;17.02;;;6.10;99.90;;;6.13;92.13;100437.91;4088193;29;20027;-69
2021/04/29 03:06:58;;;;;;;19.80;16.38;;;6.20;99.90;;;6.07;93.05;100448.91;4088174;29;20035;-69
2021/04/29 03:08:58;;;;;;;26.55;18.33;;;6.20;99.90;;;6.04;93.59;100436.09;4088027;29;20034;-69
2021/04/29 03:11:01;;;;;;;22.38;17.50;;;6.20;99.90;;;6.02;92.87;100443.28;4102909;29;20035;-69
2021/04/29 03:13:03;;;;;;;24.63;18.58;;;6.20;99.90;;;6.24;91.20;100445.66;4087046;29;20028;-69
2021/04/29 03:15:06;;;;;;;19.55;16.50;;;6.30;99.90;;;6.14;92.12;100444.81;4088100;29;20115;-69
2021/04/29 03:17:07;;;;;;;19.85;17.50;;;6.30;99.90;;;6.27;91.68;100450.63;4087709;29;20042;-69
2021/04/29 03:19:08;;;;;;;20.30;17.65;;;6.30;99.90;;;6.22;92.29;100449.34;4088111;29;20024;-70
2021/04/29 03:21:11;;;;;;;22.83;19.95;;;6.30;99.90;;;6.34;91.08;100454.34;4088316;29;20052;-69
2021/04/29 03:23:12;;;;;;;22.35;17.77;;;6.40;99.90;;;6.38;91.00;100453.13;4087855;29;20038;-69
2021/04/29 03:25:13;;;;;;;22.38;18.02;;;6.50;99.90;;;6.36;90.99;100443.75;4087909;29;20028;-69
2021/04/29 03:27:16;;;;;;;24.10;18.40;;;6.50;99.90;;;6.31;89.82;100436.28;4084624;29;20042;-69
2021/04/29 03:29:16;;;;;;;21.85;17.63;;;6.50;99.90;;;6.30;90.06;100441.69;4086809;29;20059;-69
2021/04/29 03:31:18;;;;;;;23.13;18.30;;;6.50;99.90;;;6.30;91.93;100442.47;4072164;29;20028;-69
2021/04/29 03:33:19;;;;;;;21.67;17.75;;;6.40;99.90;;;6.26;91.70;100438.50;4086476;29;20060;-69
2021/04/29 03:35:20;;;;;;;21.77;18.35;;;6.50;99.90;;;6.23;90.36;100437.94;4073250;29;20035;-69
2021/04/29 03:37:21;;;;;;;20.85;17.33;;;6.40;99.90;;;5.89;91.91;100437.44;4075410;29;20024;-69
2021/04/29 03:39:22;;;;;;;24.83;18.05;;;6.30;99.90;;;5.81;92.31;100440.69;4089990;29;20114;-69
2021/04/29 03:41:23;;;;;;;23.85;19.85;;;6.20;99.90;;;5.90;92.07;100439.94;4075220;29;20052;-69
2021/04/29 03:43:24;;;;;;;25.60;18.33;;;6.20;99.90;;;5.97;91.41;100442.84;4075478;29;20036;-69
2021/04/29 03:45:25;;;;;;;22.60;18.58;;;6.20;99.90;;;5.63;92.24;100436.22;4075118;29;20122;-69
2021/04/29 03:47:26;;;;;;;22.27;17.80;;;6.10;99.90;;;5.67;92.55;100442.84;4089580;29;20031;-69
2021/04/29 03:49:27;;;;;;;22.83;18.88;;;6.00;99.90;;;5.71;92.90;100441.59;4089853;29;20031;-69
2021/04/29 03:51:28;;;;;;;23.33;18.67;;;6.00;99.90;;;5.62;93.40;100448.47;4102542;29;20131;-69
2021/04/29 03:53:29;;;;;;;24.60;19.92;;;6.00;99.90;;;5.59;93.73;100449.56;4095664;29;20031;-69
2021/04/29 03:55:30;;;;;;;24.50;20.20;;;6.00;99.90;;;5.73;94.08;100451.00;4075248;29;20047;-69
2021/04/29 03:57:31;;;;;;;24.23;18.50;;;6.00;99.90;;;5.73;93.73;100458.03;4075155;29;20478;-69
2021/04/29 03:59:32;;;;;;;24.00;20.40;;;6.00;99.90;;;5.38;94.09;100454.00;4075114;29;20035;-69
2021/04/29 04:01:33;;;;;;;24.65;18.48;;;5.80;99.90;;;5.43;95.32;100454.47;4074881;29;20087;-69
2021/04/29 04:03:34;;;;;;;24.20;19.40;;;5.80;99.90;;;5.55;95.40;100458.63;4075221;29;20500;-69
2021/04/29 04:05:35;;;;;;;24.73;20.17;;;5.80;99.90;;;5.40;94.82;100462.56;4074968;29;20063;-69
2021/04/29 04:07:36;;;;;;;25.55;19.35;;;5.80;99.90;;;5.39;95.68;100457.44;4073610;29;20468;-69
2021/04/29 04:09:36;;;;;;;26.30;20.17;;;5.70;99.90;;;5.31;95.82;100457.28;4075035;29;20039;-69
2021/04/29 04:11:37;;;;;;;25.52;19.83;;;5.70;99.90;;;5.17;95.67;100452.38;4074820;29;20032;-69
2021/04/29 04:13:38;;;;;;;23.23;19.38;;;5.60;99.90;;;5.27;96.13;100454.09;4075083;29;20028;-69
2021/04/29 04:15:39;;;;;;;24.10;19.05;;;5.70;99.90;;;5.24;96.36;100451.72;4074802;29;20028;-69
2021/04/29 04:17:40;;;;;;;24.27;18.60;;;5.70;99.90;;;5.25;96.12;100460.41;4074604;29;20051;-69
2021/04/29 04:19:41;;;;;;;23.58;19.83;;;5.60;99.90;;;5.31;95.24;100460.72;4074831;29;20087;-69
2021/04/29 04:21:42;;;;;;;24.70;21.10;;;5.50;99.90;;;5.40;95.40;100462.56;4074802;29;20032;-69
2021/04/29 04:23:43;;;;;;;24.88;19.67;;;5.60;99.90;;;5.43;95.46;100456.25;4074418;29;20107;-69
2021/04/29 04:25:44;;;;;;;26.55;20.08;;;5.60;99.90;;;5.47;94.26;100461.06;4079241;29;20019;-69
2021/04/29 04:27:45;;;;;;;24.33;20.17;;;5.60;99.90;;;5.51;94.46;100457.25;4082856;29;20036;-69
2021/04/29 04:29:45;;;;;;;24.25;20.13;;;5.70;99.90;;;5.49;93.57;100435.63;4074618;29;20080;-69
2021/04/29 04:31:46;;;;;;;22.60;18.98;;;5.70;99.90;;;5.48;92.90;100456.66;4074150;29;20060;-69
2021/04/29 04:33:49;;;;;;;22.10;18.33;;;5.70;99.90;;;5.52;91.91;100468.53;4089090;29;20050;-69
2021/04/29 04:35:49;;;;;;;23.83;18.75;;;5.70;99.90;;;5.48;92.44;100467.97;4074620;29;20075;-69
2021/04/29 04:37:50;;;;;;;27.23;20.75;;;5.60;99.90;;;5.44;91.99;100466.56;4074710;29;20024;-69
2021/04/29 04:39:51;;;;;;;24.95;18.30;;;5.60;99.90;;;5.26;93.15;100449.81;4074376;29;20063;-69
2021/04/29 04:41:52;;;;;;;23.50;19.48;;;5.60;99.90;;;5.43;93.87;100466.72;4088849;29;20028;-69
2021/04/29 04:43:53;;;;;;;23.85;19.60;;;5.60;99.90;;;5.42;93.20;100470.28;4073327;29;20440;-69
2021/04/29 04:45:54;;;;;;;24.63;19.85;;;5.60;99.90;;;5.37;93.39;100475.91;4074139;29;20044;-69
2021/04/29 04:47:55;;;;;;;24.50;19.30;;;5.60;99.90;;;5.43;93.55;100477.16;4074026;29;20145;-69
2021/04/29 04:49:55;;;;;;;24.88;19.95;;;5.60;99.90;;;5.53;92.83;100481.47;4074453;29;20056;-69
2021/04/29 04:51:56;;;;;;;26.63;20.70;;;5.60;99.90;;;5.44;92.19;100474.41;4080616;29;20036;-69
2021/04/29 04:53:57;;;;;;;28.48;21.00;;;5.70;99.90;;;5.47;93.04;100483.78;4089849;29;20028;-69
2021/04/29 04:55:59;;;;;;;23.08;19.55;;;5.70;99.90;;;5.31;93.65;100486.88;4089961;29;20024;-69
2021/04/29 04:58:00;;;;;;;25.02;20.88;;;5.60;99.90;;;5.47;93.81;100484.63;4090193;29;20028;-69
2021/04/29 05:00:00;;;;;;;25.25;20.95;;;5.60;99.90;;;5.41;93.95;100492.97;4090019;29;20047;-69
2021/04/29 05:02:03;;;;;;;23.65;19.02;;;5.70;99.90;;;5.49;92.68;100485.34;4089606;29;20118;-69
2021/04/29 05:04:04;;;;;;;23.50;19.73;;;5.70;99.90;;;5.56;92.59;100496.91;4104547;29;20039;-69
2021/04/29 05:06:05;;;;;;;23.88;20.02;;;5.70;99.90;;;5.42;93.23;100494.66;4089635;29;20083;-69
2021/04/29 05:08:06;;;;;;;22.92;18.92;;;5.70;99.90;;;5.37;93.27;100490.75;4104497;29;20112;-69
2021/04/29 05:10:08;;;;;;;22.17;18.48;;;5.70;99.90;;;5.29;93.95;100478.31;4089783;29;20028;-69
2021/04/29 05:12:12;;;;;;;24.65;20.00;;;5.70;99.90;;;5.57;93.32;100495.97;4089692;29;20088;-69
2021/04/29 05:14:13;;;;;;;;;;;5.70;99.90;;;5.59;92.90;100495.81;4090355;29;20408;-69
2021/04/29 05:16:14;;;;;;;25.92;19.48;;;5.70;99.90;;;5.56;93.18;100496.91;4089521;29;19910;-69
2021/04/29 05:18:15;;;;;;;28.27;20.63;;;5.80;99.90;;;5.64;93.54;100508.53;4089681;29;20057;-69
2021/04/29 05:20:16;;;;;;;26.10;20.23;;;5.90;99.90;;;5.61;93.32;100504.38;4089604;29;20108;-69
2021/04/29 05:22:17;;;;;;;23.27;19.95;;;5.90;99.90;;;5.57;93.36;100518.69;4089493;29;20031;-69
2021/04/29 05:24:18;;;;;;;29.55;20.52;;;5.80;99.90;;;5.58;93.23;100518.53;4089618;29;20032;-69
2021/04/29 05:26:19;;;;;;;24.33;20.73;;;5.90;99.90;;;5.51;91.42;100504.34;4089502;29;20436;-69
2021/04/29 05:28:20;;;;;;;26.15;19.45;;;5.90;99.90;;;5.34;91.67;100509.31;4088195;29;20032;-69
2021/04/29 05:30:22;;;;;;;29.63;22.23;;;5.80;99.90;;;5.59;90.60;100520.19;4072741;29;20032;-69
2021/04/29 05:32:23;;;;;;;22.08;19.17;;;5.90;99.90;;;5.58;91.12;100523.78;4079469;29;20024;-69
2021/04/29 05:34:23;;;;;;;24.60;19.88;;;5.90;99.90;;;5.53;91.00;100520.72;4089448;29;20028;-69
2021/04/29 05:36:24;;;;;;;24.08;19.15;;;5.90;99.90;;;5.55;91.84;100520.59;4089343;29;20024;-70
2021/04/29 05:38:25;;;;;;;26.88;21.25;;;5.90;99.90;;;5.61;92.55;100524.50;4089168;29;20028;-70
2021/04/29 05:40:26;;;;;;;25.83;21.65;;;5.90;99.90;;;5.69;92.41;100519.44;4089340;29;20056;-69
2021/04/29 05:42:27;;;;;;;28.65;21.50;;;6.00;99.90;;;5.65;91.95;100533.72;4089282;29;20064;-70
2021/04/29 05:44:28;;;;;;;30.60;23.23;;;6.00;99.90;;;5.62;91.97;100518.28;4086835;29;20102;-69
2021/04/29 05:46:29;;;;;;;29.65;23.38;;;6.00;99.90;;;5.76;92.05;100533.66;4078323;29;20043;-71
2021/04/29 05:48:30;;;;;;;26.75;21.38;;;6.10;99.90;;;5.87;91.67;100534.44;4087790;29;20031;-71
2021/04/29 05:50:31;;;;;;;28.20;22.63;;;6.10;99.90;;;5.96;91.85;100530.19;4079982;29;20079;-71
2021/04/29 05:52:32;;;;;;;29.40;23.27;;;6.30;99.90;;;5.66;92.15;100533.59;4083437;29;20054;-71
2021/04/29 05:54:34;;;;;;;30.65;23.73;;;6.20;99.90;;;5.90;91.92;100542.03;4087656;29;20019;-71
2021/04/29 05:56:36;;;;;;;34.13;23.77;;;6.30;99.90;;;5.94;92.97;100538.16;4073300;29;20484;-70
2021/04/29 05:58:37;;;;;;;30.70;24.92;;;6.30;99.90;;;6.05;92.24;100537.25;4087119;29;20027;-70
2021/04/29 06:00:37;;;;;;;32.05;24.33;;;6.40;99.90;;;6.16;93.29;100545.00;4073166;29;20031;-70
2021/04/29 06:02:38;;;;;;;30.88;24.67;;;6.50;99.90;;;6.25;92.27;100543.38;4072842;29;20392;-70
2021/04/29 06:04:39;;;;;;;31.20;24.08;;;6.60;99.90;;;6.39;92.19;100545.66;4073314;29;20031;-70
2021/04/29 06:06:40;;;;;;;32.95;25.08;;;6.70;99.90;;;6.44;92.64;100540.81;4072875;29;20036;-70
2021/04/29 06:08:41;;;;;;;36.78;24.95;;;6.70;99.90;;;6.54;91.87;100541.69;4072983;29;20059;-70
2021/04/29 06:10:42;;;;;;;33.17;24.67;;;6.90;99.90;;;6.57;91.79;100550.09;4072919;29;20041;-70
2021/04/29 06:12:43;;;;;;;33.42;25.65;;;7.00;99.90;;;6.73;91.36;100541.69;4073031;29;20091;-70
2021/04/29 06:14:44;;;;;;;34.42;25.83;;;7.10;99.90;;;6.81;91.63;100543.66;4087570;29;20087;-70
2021/04/29 06:16:45;;;;;;;36.40;26.25;;;7.20;99.90;;;6.85;92.19;100552.88;4072460;29;20492;-70
2021/04/29 06:18:46;;;;;;;33.55;25.20;;;7.20;99.90;;;6.97;90.71;100554.41;4072791;29;20053;-70
2021/04/29 06:20:47;;;;;;;30.40;23.35;;;7.30;99.90;;;6.90;91.81;100559.38;4072844;29;20544;-70
2021/04/29 06:22:48;;;;;;;32.38;26.92;;;7.30;99.90;;;7.02;91.40;100563.53;4072821;29;20063;-70
2021/04/29 06:24:49;;;;;;;40.13;27.17;;;7.40;99.90;;;7.13;91.67;100570.44;4072796;29;20044;-70
2021/04/29 06:26:50;;;;;;;33.15;25.40;;;7.60;99.90;;;7.02;91.18;100557.44;4084997;29;20028;-70
2021/04/29 06:28:51;;;;;;;34.50;26.55;;;7.50;99.90;;;6.99;91.87;100563.78;4087116;29;20059;-70
2021/04/29 06:30:53;;;;;;;31.20;24.88;;;7.60;99.90;;;7.05;92.15;100572.91;4072554;29;20131;-70
2021/04/29 06:32:54;;;;;;;33.88;26.63;;;7.60;99.90;;;7.23;92.83;100582.56;4072180;29;20116;-69
2021/04/29 06:34:55;;;;;;;29.73;24.05;;;7.70;99.90;;;7.23;92.95;100574.72;4072407;29;20404;-70
2021/04/29 06:36:56;;;;;;;29.35;22.75;;;7.80;99.90;;;7.37;92.44;100573.47;4070579;29;20020;-69
2021/04/29 06:38:58;;;;;;;28.05;22.40;;;7.90;99.90;;;7.43;92.39;100580.78;4086762;29;20059;-70
2021/04/29 06:40:59;;;;;;;27.95;22.98;;;8.10;99.90;;;7.67;91.15;100580.34;4077517;29;20020;-69
2021/04/29 06:42:59;;;;;;;26.83;22.52;;;8.30;99.90;;;7.92;91.13;100592.00;4085756;29;20095;-69
2021/04/29 06:45:00;;;;;;;29.75;22.85;;;8.60;99.90;;;8.15;91.45;100581.00;4071438;29;20063;-69
2021/04/29 06:47:01;;;;;;;29.67;25.13;;;8.80;99.90;;;8.26;90.88;100587.88;4071103;29;20528;-69
2021/04/29 06:49:03;;;;;;;36.65;26.35;;;9.00;99.90;;;8.46;90.00;100581.59;4071366;29;20028;-69
2021/04/29 06:51:04;;;;;;;30.67;23.60;;;9.10;99.90;;;8.49;89.93;100581.31;4084511;29;20032;-69
2021/04/29 06:53:05;;;;;;;33.67;26.05;;;9.10;99.90;;;8.34;89.20;100586.22;4072318;29;20035;-69
2021/04/29 06:55:07;;;;;;;34.70;24.92;;;9.10;99.90;;;8.35;88.65;100581.78;4072382;29;20087;-69
2021/04/29 06:57:08;;;;;;;28.45;23.15;;;9.10;99.90;;;8.43;88.94;100581.06;4072287;29;20032;-69
2021/04/29 06:59:09;;;;;;;34.28;27.20;;;9.00;99.90;;;8.50;89.02;100590.84;4072327;29;20619;-69
2021/04/29 07:01:10;;;;;;;30.73;25.35;;;9.10;99.90;;;8.59;87.44;100584.72;4072286;29;20107;-69
2021/04/29 07:03:11;;;;;;;31.23;25.35;;;9.10;99.90;;;8.51;88.20;100581.97;4072247;29;20406;-69
2021/04/29 07:05:12;;;;;;;29.17;24.83;;;9.10;99.90;;;8.66;88.60;100590.22;4072232;29;20377;-69
2021/04/29 07:07:14;;;;;;;32.25;24.67;;;9.10;99.90;;;8.65;88.66;100580.66;4072291;29;20040;-68
2021/04/29 07:09:15;;;;;;;32.13;25.95;;;9.10;99.90;;;8.72;88.82;100589.63;4086991;29;20047;-69
2021/04/29 07:11:16;;;;;;;32.70;24.08;;;9.20;99.90;;;8.87;87.80;100596.84;4072413;29;20028;-69
2021/04/29 07:13:17;;;;;;;32.65;24.33;;;9.30;99.90;;;8.87;88.31;100588.13;4071073;29;20029;-69
2021/04/29 07:15:19;;;;;;;29.17;22.73;;;9.30;99.90;;;8.90;88.31;100595.72;4072371;29;20511;-69
2021/04/29 07:17:20;;;;;;;30.27;23.02;;;9.30;99.90;;;8.75;88.19;100589.34;4071834;29;20017;-69
2021/04/29 07:19:20;;;;;;;29.15;23.50;;;9.40;99.90;;;8.81;88.06;100600.06;4072423;29;20120;-69
2021/04/29 07:21:23;;;;;;;30.10;22.67;;;9.40;99.90;;;8.99;88.11;100601.91;4072476;29;20031;-69
2021/04/29 07:23:27;;;;;;;31.90;23.48;;;9.50;99.90;;;8.83;88.93;100602.56;4072176;29;20039;-69
2021/04/29 07:25:28;;;;;;;26.58;21.27;;;9.50;99.90;;;8.88;89.10;100606.41;4074471;29;20021;-69
2021/04/29 07:27:29;;;;;;;30.95;23.30;;;9.50;99.90;;;8.92;87.96;100606.09;4082157;29;20064;-69
2021/04/29 07:29:32;;;;;;;29.20;22.35;;;9.60;99.90;;;8.91;89.44;100600.00;4072073;29;20115;-69
2021/04/29 07:31:32;;;;;;;32.38;23.77;;;9.70;99.90;;;8.63;88.44;100606.28;4071854;29;20032;-69
2021/04/29 07:33:33;;;;;;;33.72;24.58;;;9.70;99.90;;;8.80;89.19;100595.81;4072057;29;20527;-69
2021/04/29 07:35:34;;;;;;;30.40;22.77;;;9.70;99.90;;;8.86;87.99;100608.34;4086616;29;20028;-69
2021/04/29 07:37:35;;;;;;;26.65;21.70;;;9.70;99.90;;;8.97;87.95;100611.75;4086768;29;20028;-69
2021/04/29 07:39:36;;;;;;;31.08;23.15;;;9.70;99.90;;;8.83;88.23;100613.91;4072068;29;20031;-69
2021/04/29 07:41:37;;;;;;;28.92;23.13;;;9.80;99.90;;;8.94;90.26;100610.22;4071962;29;20028;-69
2021/04/29 07:43:38;;;;;;;29.30;22.88;;;9.80;99.90;;;8.91;88.89;100621.06;4072099;29;20028;-69
2021/04/29 07:45:40;;;;;;;32.00;22.77;;;9.80;99.90;;;9.11;88.76;100622.56;4071914;29;20044;-69
2021/04/29 07:47:41;;;;;;;28.75;22.13;;;9.90;99.90;;;9.26;88.25;100628.13;4071841;29;20071;-69
2021/04/29 07:49:42;;;;;;;26.85;21.77;;;10.00;99.90;;;9.12;87.65;100628.66;4073280;29;20036;-69
2021/04/29 07:51:43;;;;;;;28.50;21.98;;;10.00;99.90;;;9.24;87.91;100638.00;4082675;29;20036;-69
2021/04/29 07:53:44;;;;;;;31.27;23.58;;;10.10;99.90;;;9.34;87.79;100612.44;4079942;29;20106;-69
2021/04/29 07:55:45;;;;;;;23.77;20.50;;;10.10;99.90;;;9.53;86.77;100637.78;4087507;29;20488;-69
2021/04/29 07:57:46;;;;;;;27.10;21.35;;;10.30;99.90;;;9.60;86.66;100634.38;4086207;29;20101;-69
2021/04/29 07:59:47;;;;;;;29.15;20.83;;;10.40;99.90;;;9.56;86.38;100640.91;4087586;29;20023;-69
2021/04/29 08:01:48;;;;;;;29.48;21.70;;;10.40;99.90;;;9.62;87.55;100642.94;4087404;29;20027;-69
2021/04/29 08:03:49;;;;;;;25.42;20.75;;;10.50;99.90;;;9.39;86.32;100636.50;4087674;29;20523;-69
2021/04/29 08:05:50;;;;;;;27.95;21.48;;;10.60;99.90;;;9.53;87.28;100643.06;4087487;29;20028;-69
2021/04/29 08:07:51;;;;;;;27.90;20.20;;;10.50;99.90;;;9.54;84.68;100650.78;4087752;29;20028;-69
2021/04/29 08:09:53;;;;;;;28.33;21.90;;;10.60;99.90;;;9.79;85.96;100643.91;4086307;29;20036;-69
2021/04/29 08:11:54;;;;;;;31.38;21.10;;;10.70;99.90;;;9.89;84.84;100640.19;4087657;29;20040;-69
2021/04/29 08:13:55;;;;;;;28.38;21.13;;;10.70;99.90;;;9.68;85.20;100630.97;4101897;29;20023;-69
2021/04/29 08:15:56;;;;;;;29.35;20.40;;;10.80;99.90;;;9.74;85.48;100652.25;4087439;29;20038;-69
2021/04/29 08:17:56;;;;;;;26.48;20.35;;;10.80;99.90;;;9.83;84.50;100646.06;4087271;29;20023;-69
2021/04/29 08:19:57;;;;;;;26.80;21.38;;;10.90;99.90;;;9.84;84.26;100647.75;4087540;29;20090;-69
2021/04/29 08:21:58;;;;;;;30.10;20.38;;;10.90;99.90;;;9.94;83.44;100647.66;4089056;29;20035;-69
2021/04/29 08:23:59;;;;;;;27.27;20.17;;;11.00;99.90;;;10.09;83.61;100646.09;4089244;29;20054;-69
2021/04/29 08:26:02;;;;;;;28.85;22.08;;;11.00;99.90;;;10.15;83.75;100648.16;4090201;29;20019;-69
2021/04/29 08:28:03;;;;;;;25.98;19.92;;;11.20;99.90;;;10.33;82.80;100651.56;4080566;29;20404;-69